createdAt,value
2023-01-23T00:00:16.559Z,97.3
2023-01-23T00:01:17.141Z,97.3
2023-01-23T00:02:17.452Z,97.3
2023-01-23T00:03:16.993Z,97.3
2023-01-23T00:04:16.592Z,97.3
2023-01-23T00:05:17.166Z,97.3
2023-01-23T00:06:16.688Z,97.3
2023-01-23T00:07:17.213Z,97.2
2023-01-23T00:08:16.718Z,97.2
2023-01-23T00:09:17.220Z,97.3
2023-01-23T00:10:16.830Z,97.3
2023-01-23T00:11:17.375Z,97.3
2023-01-23T00:12:16.831Z,97.3
2023-01-23T00:13:17.327Z,97.4
2023-01-23T00:14:16.867Z,97.3
2023-01-23T00:15:17.403Z,97.3
2023-01-23T00:16:16.945Z,97.3
2023-01-23T00:17:17.441Z,97.3
2023-01-23T00:18:16.926Z,97.3
2023-01-23T00:19:17.421Z,97.2
2023-01-23T00:20:17.169Z,97.2
2023-01-23T00:21:16.762Z,97.2
2023-01-23T00:22:16.677Z,97.2
2023-01-23T00:23:17.193Z,97.2
2023-01-23T00:24:16.710Z,97.2
2023-01-23T00:25:17.194Z,97.2
2023-01-23T00:26:16.694Z,97.2
2023-01-23T00:27:17.217Z,97.1
2023-01-23T00:28:16.781Z,97.1
2023-01-23T00:29:17.275Z,97.1
2023-01-23T00:30:16.997Z,97.1
2023-01-23T00:31:16.810Z,97.1
2023-01-23T00:32:16.854Z,97.1
2023-01-23T00:33:17.371Z,97.1
2023-01-23T00:34:16.976Z,97.2
2023-01-23T00:35:16.496Z,97.1
2023-01-23T00:36:17.022Z,97.1
2023-01-23T00:37:16.549Z,97.1
2023-01-23T00:38:17.191Z,97.0
2023-01-23T00:39:16.736Z,97.1
2023-01-23T00:40:17.748Z,97.1
2023-01-23T00:41:17.375Z,97.1
2023-01-23T00:42:16.573Z,97.1
2023-01-23T00:43:17.110Z,97.1
2023-01-23T00:44:16.631Z,97.0
2023-01-23T00:45:17.163Z,96.9
2023-01-23T00:46:16.739Z,97.1
2023-01-23T00:47:17.289Z,97.1
2023-01-23T00:48:16.786Z,97.1
2023-01-23T00:49:17.277Z,97.1
2023-01-23T00:50:16.977Z,97.0
2023-01-23T00:51:16.762Z,97.0
2023-01-23T00:52:17.159Z,97.0
2023-01-23T00:53:16.665Z,97.0
2023-01-23T00:54:17.150Z,97.0
2023-01-23T00:55:16.669Z,97.0
2023-01-23T00:56:17.170Z,97.0
2023-01-23T00:57:16.668Z,97.0
2023-01-23T00:58:17.151Z,97.0
2023-01-23T00:59:16.667Z,97.0
2023-01-23T01:00:17.791Z,97.0
2023-01-23T01:01:17.581Z,97.0
2023-01-23T01:02:17.440Z,97.0
2023-01-23T01:03:16.986Z,97.0
2023-01-23T01:04:16.527Z,96.9
2023-01-23T01:05:17.037Z,96.9
2023-01-23T01:06:16.574Z,96.9
2023-01-23T01:07:17.092Z,96.9
2023-01-23T01:08:16.584Z,97.0
2023-01-23T01:09:17.126Z,97.0
2023-01-23T01:10:16.778Z,96.9
2023-01-23T01:11:17.359Z,96.8
2023-01-23T01:12:16.649Z,96.9
2023-01-23T01:13:17.160Z,96.8
2023-01-23T01:14:16.815Z,96.9
2023-01-23T01:15:17.342Z,96.9
2023-01-23T01:16:17.006Z,97.0
2023-01-23T01:17:16.526Z,97.1
2023-01-23T01:18:17.014Z,97.1
2023-01-23T01:19:16.460Z,97.1
2023-01-23T01:20:17.135Z,97.1
2023-01-23T01:21:16.723Z,97.1
2023-01-23T01:22:17.294Z,97.1
2023-01-23T01:23:16.815Z,97.2
2023-01-23T01:24:17.312Z,97.2
2023-01-23T01:25:16.844Z,97.1
2023-01-23T01:26:17.326Z,97.1
2023-01-23T01:27:16.820Z,97.1
2023-01-23T01:28:17.322Z,97.2
2023-01-23T01:29:16.870Z,97.1
2023-01-23T01:30:18.083Z,97.2
2023-01-23T01:31:17.159Z,97.2
2023-01-23T01:32:16.797Z,97.2
2023-01-23T01:33:17.307Z,97.2
2023-01-23T01:34:16.867Z,97.2
2023-01-23T01:35:17.376Z,97.2
2023-01-23T01:36:16.915Z,97.2
2023-01-23T01:37:17.403Z,97.2
2023-01-23T01:38:16.912Z,97.2
2023-01-23T01:39:17.421Z,97.2
2023-01-23T01:40:17.388Z,97.2
2023-01-23T01:41:17.022Z,97.1
2023-01-23T01:42:17.023Z,97.1
2023-01-23T01:43:16.514Z,97.1
2023-01-23T01:44:17.000Z,97.0
2023-01-23T01:45:16.505Z,97.0
2023-01-23T01:46:17.119Z,97.1
2023-01-23T01:47:16.640Z,97.1
2023-01-23T01:48:17.150Z,97.1
2023-01-23T01:49:16.629Z,97.1
2023-01-23T01:50:17.681Z,97.2
2023-01-23T01:51:17.393Z,97.2
2023-01-23T01:52:17.274Z,97.1
2023-01-23T01:53:16.789Z,97.2
2023-01-23T01:54:17.304Z,97.2
2023-01-23T01:55:16.841Z,97.2
2023-01-23T01:56:17.369Z,97.1
2023-01-23T01:57:16.840Z,97.1
2023-01-23T01:58:17.338Z,97.1
2023-01-23T01:59:16.829Z,97.1
2023-01-23T02:00:17.603Z,97.1
2023-01-23T02:01:17.187Z,97.1
2023-01-23T02:02:17.420Z,97.1
2023-01-23T02:03:17.002Z,97.0
2023-01-23T02:04:16.527Z,97.0
2023-01-23T02:05:17.040Z,97.0
2023-01-23T02:06:16.551Z,97.1
2023-01-23T02:07:17.024Z,97.0
2023-01-23T02:08:16.577Z,97.0
2023-01-23T02:09:17.085Z,97.0
2023-01-23T02:10:16.616Z,97.0
2023-01-23T02:11:17.117Z,96.9
2023-01-23T02:12:16.568Z,96.9
2023-01-23T02:13:17.105Z,97.0
2023-01-23T02:14:16.712Z,97.0
2023-01-23T02:15:17.258Z,97.0
2023-01-23T02:16:16.842Z,96.9
2023-01-23T02:17:17.382Z,97.0
2023-01-23T02:18:16.896Z,97.0
2023-01-23T02:19:17.382Z,96.9
2023-01-23T02:20:17.165Z,96.9
2023-01-23T02:21:16.949Z,96.9
2023-01-23T02:22:17.458Z,96.9
2023-01-23T02:23:16.943Z,96.9
2023-01-23T02:24:17.469Z,96.9
2023-01-23T02:25:16.982Z,96.9
2023-01-23T02:26:16.517Z,96.8
2023-01-23T02:27:17.057Z,96.9
2023-01-23T02:28:16.646Z,96.9
2023-01-23T02:29:17.145Z,96.9
2023-01-23T02:30:16.651Z,96.9
2023-01-23T02:31:17.360Z,96.9
2023-01-23T02:32:16.740Z,96.9
2023-01-23T02:33:17.232Z,96.9
2023-01-23T02:34:16.735Z,97.0
2023-01-23T02:35:17.235Z,96.9
2023-01-23T02:36:16.759Z,96.9
2023-01-23T02:37:17.296Z,96.9
2023-01-23T02:38:16.812Z,96.9
2023-01-23T02:39:17.340Z,96.9
2023-01-23T02:40:17.192Z,96.9
2023-01-23T02:41:16.737Z,96.9
2023-01-23T02:42:16.789Z,96.9
2023-01-23T02:43:17.264Z,96.8
2023-01-23T02:44:16.767Z,96.7
2023-01-23T02:45:17.276Z,96.7
2023-01-23T02:46:16.775Z,96.7
2023-01-23T02:47:17.341Z,96.7
2023-01-23T02:48:16.855Z,96.7
2023-01-23T02:49:17.359Z,96.8
2023-01-23T02:50:17.571Z,96.8
2023-01-23T02:51:17.403Z,96.8
2023-01-23T02:52:17.041Z,96.8
2023-01-23T02:53:16.584Z,96.9
2023-01-23T02:54:17.117Z,96.8
2023-01-23T02:55:16.626Z,96.8
2023-01-23T02:56:17.104Z,96.8
2023-01-23T02:57:16.610Z,96.8
2023-01-23T02:58:17.121Z,96.8
2023-01-23T02:59:16.621Z,96.7
2023-01-23T03:00:17.577Z,96.7
2023-01-23T03:01:17.343Z,96.8
2023-01-23T03:02:17.523Z,96.8
2023-01-23T03:03:17.075Z,96.7
2023-01-23T03:04:16.604Z,96.7
2023-01-23T03:05:17.112Z,96.8
2023-01-23T03:06:16.641Z,96.8
2023-01-23T03:07:17.138Z,96.8
2023-01-23T03:08:16.648Z,96.8
2023-01-23T03:09:17.148Z,96.8
2023-01-23T03:10:16.646Z,96.8
2023-01-23T03:11:17.175Z,96.8
2023-01-23T03:12:16.680Z,96.8
2023-01-23T03:13:17.215Z,96.8
2023-01-23T03:14:16.744Z,96.8
2023-01-23T03:15:17.278Z,96.8
2023-01-23T03:16:16.810Z,96.9
2023-01-23T03:17:17.306Z,96.7
2023-01-23T03:18:16.815Z,96.8
2023-01-23T03:19:17.356Z,96.8
2023-01-23T03:20:16.956Z,96.8
2023-01-23T03:21:16.452Z,96.8
2023-01-23T03:22:17.316Z,96.8
2023-01-23T03:23:16.838Z,96.8
2023-01-23T03:24:17.357Z,96.8
2023-01-23T03:25:16.861Z,96.8
2023-01-23T03:26:17.379Z,96.8
2023-01-23T03:27:16.942Z,96.8
2023-01-23T03:28:17.466Z,96.8
2023-01-23T03:29:16.953Z,96.7
2023-01-23T03:30:18.065Z,96.6
2023-01-23T03:31:16.709Z,96.5
2023-01-23T03:32:16.917Z,96.4
2023-01-23T03:33:17.441Z,96.4
2023-01-23T03:34:16.939Z,96.5
2023-01-23T03:35:16.502Z,96.4
2023-01-23T03:36:16.996Z,96.5
2023-01-23T03:37:16.483Z,96.4
2023-01-23T03:38:17.001Z,96.4
2023-01-23T03:39:16.506Z,96.4
2023-01-23T03:40:17.107Z,96.4
2023-01-23T03:41:16.650Z,96.4
2023-01-23T03:42:17.339Z,96.4
2023-01-23T03:43:16.865Z,96.3
2023-01-23T03:44:17.358Z,96.3
2023-01-23T03:45:16.852Z,95.9
2023-01-23T03:46:17.338Z,95.9
2023-01-23T03:47:16.840Z,95.8
2023-01-23T03:48:17.359Z,95.8
2023-01-23T03:49:16.843Z,95.8
2023-01-23T03:50:17.801Z,95.8
2023-01-23T03:51:17.498Z,95.8
2023-01-23T03:52:16.820Z,95.7
2023-01-23T03:53:17.339Z,95.8
2023-01-23T03:54:16.906Z,95.8
2023-01-23T03:55:17.412Z,95.6
2023-01-23T03:56:16.925Z,95.7
2023-01-23T03:57:17.405Z,95.7
2023-01-23T03:58:16.944Z,95.8
2023-01-23T03:59:17.481Z,95.8
2023-01-23T04:00:17.662Z,95.7
2023-01-23T04:01:17.380Z,95.7
2023-01-23T04:02:17.289Z,95.8
2023-01-23T04:03:16.836Z,95.8
2023-01-23T04:04:17.392Z,95.7
2023-01-23T04:05:16.911Z,95.4
2023-01-23T04:06:17.408Z,95.3
2023-01-23T04:07:16.948Z,95.0
2023-01-23T04:08:17.464Z,95.2
2023-01-23T04:09:16.963Z,95.3
2023-01-23T04:10:17.697Z,95.4
2023-01-23T04:11:17.279Z,95.5
2023-01-23T04:12:17.294Z,95.6
2023-01-23T04:13:16.805Z,95.6
2023-01-23T04:14:17.295Z,95.7
2023-01-23T04:15:16.792Z,95.6
2023-01-23T04:16:17.400Z,95.6
2023-01-23T04:17:16.930Z,95.4
2023-01-23T04:18:17.440Z,95.4
2023-01-23T04:19:16.934Z,95.1
2023-01-23T04:20:17.749Z,95.1
2023-01-23T04:21:17.409Z,95.0
2023-01-23T04:22:17.426Z,94.9
2023-01-23T04:23:16.989Z,94.8
2023-01-23T04:24:16.539Z,94.7
2023-01-23T04:25:17.020Z,94.9
2023-01-23T04:26:16.516Z,94.9
2023-01-23T04:27:17.007Z,95.0
2023-01-23T04:28:16.535Z,95.0
2023-01-23T04:29:17.047Z,95.0
2023-01-23T04:30:16.567Z,95.0
2023-01-23T04:31:17.407Z,95.1
2023-01-23T04:32:16.549Z,95.1
2023-01-23T04:33:17.053Z,95.1
2023-01-23T04:34:16.527Z,95.1
2023-01-23T04:35:17.009Z,95.0
2023-01-23T04:36:16.529Z,94.9
2023-01-23T04:37:17.038Z,94.6
2023-01-23T04:38:16.527Z,94.6
2023-01-23T04:39:17.042Z,94.6
2023-01-23T04:40:16.553Z,94.6
2023-01-23T04:41:17.036Z,94.7
2023-01-23T04:42:17.461Z,94.7
2023-01-23T04:43:16.987Z,94.8
2023-01-23T04:44:16.466Z,94.8
2023-01-23T04:45:16.979Z,94.7
2023-01-23T04:46:16.645Z,94.7
2023-01-23T04:47:17.185Z,94.8
2023-01-23T04:48:16.716Z,94.8
2023-01-23T04:49:17.215Z,94.9
2023-01-23T04:50:16.879Z,94.9
2023-01-23T04:51:17.587Z,94.9
2023-01-23T04:52:17.228Z,94.9
2023-01-23T04:53:16.723Z,94.9
2023-01-23T04:54:17.242Z,94.8
2023-01-23T04:55:16.747Z,94.8
2023-01-23T04:56:17.262Z,94.8
2023-01-23T04:57:16.745Z,94.8
2023-01-23T04:58:17.238Z,94.8
2023-01-23T04:59:16.786Z,94.8
2023-01-23T05:00:17.564Z,94.7
2023-01-23T05:01:17.256Z,94.6
2023-01-23T05:02:16.919Z,94.6
2023-01-23T05:03:17.486Z,94.6
2023-01-23T05:04:17.012Z,94.6
2023-01-23T05:05:16.556Z,94.6
2023-01-23T05:06:17.084Z,94.7
2023-01-23T05:07:16.808Z,94.6
2023-01-23T05:08:16.518Z,94.7
2023-01-23T05:09:17.034Z,94.7
2023-01-23T05:10:16.590Z,94.7
2023-01-23T05:11:17.092Z,94.6
2023-01-23T05:12:17.391Z,94.6
2023-01-23T05:13:16.879Z,94.6
2023-01-23T05:14:17.345Z,94.6
2023-01-23T05:15:16.832Z,94.7
2023-01-23T05:16:17.350Z,94.9
2023-01-23T05:17:16.886Z,94.9
2023-01-23T05:18:17.424Z,94.9
2023-01-23T05:19:16.929Z,95.0
2023-01-23T05:20:18.128Z,94.9
2023-01-23T05:21:16.706Z,94.9
2023-01-23T05:22:16.661Z,94.9
2023-01-23T05:23:17.193Z,94.9
2023-01-23T05:24:16.707Z,94.9
2023-01-23T05:25:17.287Z,94.8
2023-01-23T05:26:16.800Z,94.8
2023-01-23T05:27:17.347Z,94.8
2023-01-23T05:28:16.829Z,94.8
2023-01-23T05:29:17.356Z,94.7
2023-01-23T05:30:17.013Z,94.7
2023-01-23T05:31:16.972Z,94.9
2023-01-23T05:32:16.765Z,94.9
2023-01-23T05:33:17.302Z,94.9
2023-01-23T05:34:16.815Z,94.9
2023-01-23T05:35:17.345Z,94.9
2023-01-23T05:36:18.826Z,95.0
2023-01-23T05:37:17.374Z,95.0
2023-01-23T05:38:16.867Z,95.0
2023-01-23T05:39:17.385Z,95.1
2023-01-23T05:40:17.100Z,95.2
2023-01-23T05:41:16.656Z,95.2
2023-01-23T05:42:17.001Z,95.2
2023-01-23T05:43:16.521Z,95.2
2023-01-23T05:44:17.061Z,95.2
2023-01-23T05:45:16.573Z,94.9
2023-01-23T05:46:17.258Z,94.5
2023-01-23T05:47:16.809Z,94.4
2023-01-23T05:48:17.331Z,94.5
2023-01-23T05:49:16.848Z,94.4
2023-01-23T05:50:17.850Z,94.3
2023-01-23T05:51:16.602Z,94.3
2023-01-23T05:52:17.439Z,94.4
2023-01-23T05:53:16.923Z,94.5
2023-01-23T05:54:17.404Z,94.4
2023-01-23T05:55:16.900Z,93.9
2023-01-23T05:56:17.407Z,94.0
2023-01-23T05:57:16.957Z,94.0
2023-01-23T05:58:17.519Z,93.9
2023-01-23T05:59:17.049Z,93.9
2023-01-23T06:00:16.543Z,93.6
2023-01-23T06:01:17.039Z,93.7
2023-01-23T06:02:16.569Z,93.7
2023-01-23T06:03:17.139Z,93.8
2023-01-23T06:04:16.708Z,93.8
2023-01-23T06:05:17.246Z,93.8
2023-01-23T06:06:16.789Z,93.9
2023-01-23T06:07:17.308Z,93.9
2023-01-23T06:08:16.827Z,94.1
2023-01-23T06:09:17.331Z,94.0
2023-01-23T06:10:16.922Z,93.9
2023-01-23T06:11:17.448Z,94.0
2023-01-23T06:12:16.919Z,94.0
2023-01-23T06:13:17.447Z,93.9
2023-01-23T06:14:16.936Z,93.9
2023-01-23T06:15:17.456Z,94.1
2023-01-23T06:16:17.080Z,94.2
2023-01-23T06:17:16.821Z,94.2
2023-01-23T06:18:17.337Z,94.2
2023-01-23T06:19:16.807Z,94.2
2023-01-23T06:20:17.590Z,94.2
2023-01-23T06:21:17.158Z,94.1
2023-01-23T06:22:16.896Z,94.1
2023-01-23T06:23:17.383Z,93.8
2023-01-23T06:24:16.948Z,93.8
2023-01-23T06:25:17.498Z,93.6
2023-01-23T06:26:17.059Z,93.4
2023-01-23T06:27:16.564Z,93.4
2023-01-23T06:28:17.060Z,93.6
2023-01-23T06:29:16.571Z,93.8
2023-01-23T06:30:17.071Z,93.8
2023-01-23T06:31:16.775Z,93.8
2023-01-23T06:32:17.414Z,93.5
2023-01-23T06:33:16.888Z,93.5
2023-01-23T06:34:17.414Z,93.3
2023-01-23T06:35:17.024Z,93.4
2023-01-23T06:36:16.578Z,93.3
2023-01-23T06:37:17.121Z,93.4
2023-01-23T06:38:16.624Z,93.5
2023-01-23T06:39:17.106Z,93.6
2023-01-23T06:40:16.620Z,93.7
2023-01-23T06:41:20.036Z,93.7
2023-01-23T06:42:16.721Z,93.4
2023-01-23T06:43:17.228Z,93.4
2023-01-23T06:44:16.708Z,93.4
2023-01-23T06:45:17.330Z,93.4
2023-01-23T06:46:16.937Z,93.5
2023-01-23T06:47:17.476Z,93.6
2023-01-23T06:48:16.963Z,93.6
2023-01-23T06:49:17.483Z,93.5
2023-01-23T06:50:16.983Z,93.4
2023-01-23T06:51:16.529Z,93.5
2023-01-23T06:52:17.054Z,93.5
2023-01-23T06:53:16.607Z,93.6
2023-01-23T06:54:17.150Z,93.7
2023-01-23T06:55:16.667Z,93.8
2023-01-23T06:56:17.171Z,93.8
2023-01-23T06:57:16.709Z,93.8
2023-01-23T06:58:17.271Z,93.8
2023-01-23T06:59:16.774Z,93.9
2023-01-23T07:00:17.307Z,94.0
2023-01-23T07:01:16.942Z,94.1
2023-01-23T07:02:17.252Z,94.0
2023-01-23T07:03:16.876Z,94.0
2023-01-23T07:04:17.371Z,94.1
2023-01-23T07:05:16.861Z,94.1
2023-01-23T07:06:17.371Z,94.1
2023-01-23T07:07:16.865Z,94.1
2023-01-23T07:08:17.371Z,94.1
2023-01-23T07:09:16.909Z,94.1
2023-01-23T07:10:17.495Z,94.1
2023-01-23T07:11:17.025Z,94.1
2023-01-23T07:12:16.517Z,94.1
2023-01-23T07:13:17.010Z,94.1
2023-01-23T07:14:16.578Z,94.1
2023-01-23T07:15:17.079Z,94.1
2023-01-23T07:16:16.664Z,94.0
2023-01-23T07:17:17.207Z,94.0
2023-01-23T07:18:16.697Z,94.0
2023-01-23T07:19:17.216Z,94.0
2023-01-23T07:20:16.719Z,94.0
2023-01-23T07:21:17.201Z,94.0
2023-01-23T07:22:16.721Z,94.0
2023-01-23T07:23:17.226Z,94.0
2023-01-23T07:24:16.725Z,93.8
2023-01-23T07:25:17.209Z,93.8
2023-01-23T07:26:16.764Z,93.8
2023-01-23T07:27:17.313Z,93.8
2023-01-23T07:28:16.811Z,93.8
2023-01-23T07:29:17.312Z,93.8
2023-01-23T07:30:16.803Z,93.8
2023-01-23T07:31:17.527Z,93.6
2023-01-23T07:32:16.595Z,93.6
2023-01-23T07:33:17.148Z,93.6
2023-01-23T07:34:16.642Z,93.6
2023-01-23T07:35:17.158Z,93.4
2023-01-23T07:36:16.649Z,93.6
2023-01-23T07:37:17.203Z,93.7
2023-01-23T07:38:16.754Z,93.6
2023-01-23T07:39:17.285Z,93.6
2023-01-23T07:40:16.782Z,93.6
2023-01-23T07:41:17.297Z,93.5
2023-01-23T07:42:16.639Z,93.6
2023-01-23T07:43:17.137Z,93.6
2023-01-23T07:44:16.667Z,93.5
2023-01-23T07:45:17.209Z,93.6
2023-01-23T07:46:16.787Z,93.7
2023-01-23T07:47:17.311Z,93.7
2023-01-23T07:48:16.824Z,93.8
2023-01-23T07:49:17.333Z,93.7
2023-01-23T07:50:16.840Z,93.6
2023-01-23T07:51:17.534Z,93.6
2023-01-23T07:52:17.308Z,93.6
2023-01-23T07:53:16.796Z,93.4
2023-01-23T07:54:17.312Z,93.5
2023-01-23T07:55:16.821Z,93.6
2023-01-23T07:56:17.302Z,93.6
2023-01-23T07:57:16.826Z,93.5
2023-01-23T07:58:17.344Z,93.6
2023-01-23T07:59:16.869Z,93.6
2023-01-23T08:00:17.678Z,93.6
2023-01-23T08:01:17.326Z,93.5
2023-01-23T08:02:17.348Z,93.5
2023-01-23T08:03:16.868Z,93.6
2023-01-23T08:04:17.462Z,93.7
2023-01-23T08:05:16.984Z,93.7
2023-01-23T08:06:16.485Z,93.4
2023-01-23T08:07:17.162Z,93.5
2023-01-23T08:08:16.655Z,93.6
2023-01-23T08:09:17.156Z,93.6
2023-01-23T08:10:16.716Z,93.5
2023-01-23T08:11:17.250Z,93.6
2023-01-23T08:12:16.745Z,93.6
2023-01-23T08:13:17.304Z,93.7
2023-01-23T08:14:16.828Z,93.6
2023-01-23T08:15:17.339Z,93.5
2023-01-23T08:16:16.916Z,93.4
2023-01-23T08:17:17.467Z,93.5
2023-01-23T08:18:16.941Z,93.6
2023-01-23T08:19:17.438Z,93.7
2023-01-23T08:20:16.950Z,93.7
2023-01-23T08:21:17.489Z,93.8
2023-01-23T08:22:17.073Z,93.8
2023-01-23T08:23:16.577Z,93.8
2023-01-23T08:24:17.106Z,93.9
2023-01-23T08:25:16.608Z,93.9
2023-01-23T08:26:17.117Z,93.9
2023-01-23T08:27:16.628Z,93.9
2023-01-23T08:28:17.105Z,94.0
2023-01-23T08:29:16.595Z,94.0
2023-01-23T08:30:17.219Z,94.0
2023-01-23T08:31:16.959Z,94.1
2023-01-23T08:32:17.357Z,94.1
2023-01-23T08:33:16.826Z,94.1
2023-01-23T08:34:17.412Z,94.1
2023-01-23T08:35:16.907Z,94.1
2023-01-23T08:36:17.443Z,94.0
2023-01-23T08:37:16.945Z,94.1
2023-01-23T08:38:17.425Z,94.0
2023-01-23T08:39:16.923Z,94.0
2023-01-23T08:40:17.502Z,94.0
2023-01-23T08:41:17.003Z,94.0
2023-01-23T08:42:16.487Z,94.0
2023-01-23T08:43:16.982Z,94.0
2023-01-23T08:44:16.455Z,94.0
2023-01-23T08:45:16.963Z,94.0
2023-01-23T08:46:17.550Z,93.9
2023-01-23T08:47:17.059Z,94.0
2023-01-23T08:48:16.544Z,94.0
2023-01-23T08:49:17.110Z,94.0
2023-01-23T08:50:16.642Z,94.0
2023-01-23T08:51:17.347Z,94.1
2023-01-23T08:52:16.625Z,94.1
2023-01-23T08:53:17.098Z,94.1
2023-01-23T08:54:16.613Z,94.1
2023-01-23T08:55:17.106Z,94.0
2023-01-23T08:56:17.342Z,94.0
2023-01-23T08:57:16.842Z,93.9
2023-01-23T08:58:17.336Z,93.8
2023-01-23T08:59:16.840Z,93.8
2023-01-23T09:00:17.561Z,93.8
2023-01-23T09:01:17.402Z,94.0
2023-01-23T09:02:16.778Z,94.0
2023-01-23T09:03:17.300Z,94.0
2023-01-23T09:04:16.815Z,93.9
2023-01-23T09:05:17.317Z,94.0
2023-01-23T09:06:16.879Z,94.0
2023-01-23T09:07:17.399Z,93.9
2023-01-23T09:08:16.881Z,93.9
2023-01-23T09:09:17.393Z,93.8
2023-01-23T09:10:16.882Z,93.7
2023-01-23T09:11:17.544Z,93.8
2023-01-23T09:12:16.847Z,93.8
2023-01-23T09:13:17.331Z,93.5
2023-01-23T09:14:16.825Z,93.6
2023-01-23T09:15:17.331Z,93.5
2023-01-23T09:16:16.992Z,93.5
2023-01-23T09:17:16.539Z,93.5
2023-01-23T09:18:17.028Z,93.4
2023-01-23T09:19:16.496Z,93.6
2023-01-23T09:20:17.006Z,93.3
2023-01-23T09:21:16.567Z,93.5
2023-01-23T09:22:17.502Z,93.4
2023-01-23T09:23:17.030Z,93.2
2023-01-23T09:24:16.564Z,92.4
2023-01-23T09:25:17.085Z,92.4
2023-01-23T09:26:19.998Z,92.7
2023-01-23T09:27:16.586Z,92.8
2023-01-23T09:28:17.088Z,92.8
2023-01-23T09:29:16.590Z,92.7
2023-01-23T09:30:17.191Z,92.7
2023-01-23T09:31:16.771Z,92.4
2023-01-23T09:32:16.836Z,92.0
2023-01-23T09:33:17.354Z,92.2
2023-01-23T09:34:17.603Z,92.3
2023-01-23T09:35:17.181Z,92.1
2023-01-23T09:36:16.679Z,92.3
2023-01-23T09:37:17.191Z,92.4
2023-01-23T09:38:16.711Z,92.5
2023-01-23T09:39:17.229Z,92.6
2023-01-23T09:40:16.878Z,92.5
2023-01-23T09:41:17.377Z,92.3
2023-01-23T09:42:16.677Z,92.3
2023-01-23T09:43:17.167Z,92.4
2023-01-23T09:44:16.708Z,92.4
2023-01-23T09:45:17.233Z,92.2
2023-01-23T09:46:16.835Z,92.2
2023-01-23T09:47:17.355Z,92.1
2023-01-23T09:48:16.903Z,92.3
2023-01-23T09:49:17.430Z,92.3
2023-01-23T09:50:16.974Z,92.1
2023-01-23T09:51:16.662Z,91.7
2023-01-23T09:52:17.079Z,91.8
2023-01-23T09:53:16.583Z,91.9
2023-01-23T09:54:17.082Z,91.9
2023-01-23T09:55:16.630Z,91.7
2023-01-23T09:56:17.101Z,91.8
2023-01-23T09:57:16.635Z,91.7
2023-01-23T09:58:17.166Z,91.7
2023-01-23T09:59:16.678Z,91.7
2023-01-23T10:00:17.304Z,91.4
2023-01-23T10:01:16.880Z,91.3
2023-01-23T10:02:17.291Z,91.0
2023-01-23T10:03:16.798Z,90.8
2023-01-23T10:04:17.311Z,91.3
2023-01-23T10:05:16.837Z,90.9
2023-01-23T10:06:17.345Z,90.9
2023-01-23T10:07:19.513Z,91.0
2023-01-23T10:08:17.023Z,91.0
2023-01-23T10:09:16.565Z,91.0
2023-01-23T10:10:17.085Z,90.7
2023-01-23T10:11:16.572Z,91.1
2023-01-23T10:12:17.147Z,91.1
2023-01-23T10:13:16.988Z,90.9
2023-01-23T10:14:17.624Z,90.9
2023-01-23T10:15:17.127Z,90.8
2023-01-23T10:16:16.789Z,90.7
2023-01-23T10:17:17.384Z,91.0
2023-01-23T10:18:16.931Z,90.8
2023-01-23T10:19:17.476Z,91.0
2023-01-23T10:20:17.025Z,90.9
2023-01-23T10:21:16.604Z,91.1
2023-01-23T10:22:23.377Z,91.3
2023-01-23T10:23:16.921Z,91.3
2023-01-23T10:24:17.425Z,91.3
2023-01-23T10:25:16.900Z,91.1
2023-01-23T10:26:17.404Z,91.0
2023-01-23T10:27:16.917Z,90.9
2023-01-23T10:28:17.413Z,90.7
2023-01-23T10:29:16.921Z,90.7
2023-01-23T10:30:17.557Z,90.7
2023-01-23T10:31:17.605Z,90.7
2023-01-23T10:32:17.359Z,90.6
2023-01-23T10:33:16.889Z,90.7
2023-01-23T10:34:17.447Z,90.8
2023-01-23T10:35:16.970Z,90.8
2023-01-23T10:36:24.716Z,90.8
2023-01-23T10:37:16.775Z,90.9
2023-01-23T10:38:17.286Z,90.5
2023-01-23T10:39:16.795Z,90.6
2023-01-23T10:40:17.327Z,90.5
2023-01-23T10:41:16.831Z,90.4
2023-01-23T10:42:16.534Z,90.1
2023-01-23T10:43:17.061Z,90.2
2023-01-23T10:44:16.557Z,89.9
2023-01-23T10:45:17.097Z,90.2
2023-01-23T10:46:16.769Z,90.2
2023-01-23T10:47:17.320Z,90.4
2023-01-23T10:48:16.902Z,90.2
2023-01-23T10:49:17.430Z,90.2
2023-01-23T10:50:16.932Z,90.1
2023-01-23T10:51:17.626Z,90.0
2023-01-23T10:52:16.874Z,89.8
2023-01-23T10:53:17.386Z,89.4
2023-01-23T10:54:32.091Z,89.4
2023-01-23T10:55:16.839Z,88.8
2023-01-23T10:56:17.308Z,89.3
2023-01-23T10:57:16.838Z,89.7
2023-01-23T10:58:17.341Z,89.7
2023-01-23T10:59:16.827Z,89.8
2023-01-23T11:00:17.360Z,89.7
2023-01-23T11:01:18.837Z,88.3
2023-01-23T11:02:17.795Z,88.7
2023-01-23T11:03:17.555Z,89.1
2023-01-23T11:04:17.099Z,89.2
2023-01-23T11:05:16.592Z,89.2
2023-01-23T11:06:17.077Z,89.1
2023-01-23T11:07:16.781Z,88.4
2023-01-23T11:08:17.271Z,88.7
2023-01-23T11:09:16.797Z,89.0
2023-01-23T11:10:17.374Z,88.9
2023-01-23T11:11:16.950Z,88.7
2023-01-23T11:12:17.303Z,88.6
2023-01-23T11:13:16.801Z,88.6
2023-01-23T11:14:17.353Z,88.7
2023-01-23T11:15:16.889Z,88.4
2023-01-23T11:16:17.522Z,88.5
2023-01-23T11:17:17.063Z,88.3
2023-01-23T11:18:18.412Z,88.4
2023-01-23T11:19:16.937Z,88.6
2023-01-23T11:20:17.486Z,88.9
2023-01-23T11:21:16.978Z,88.8
2023-01-23T11:22:16.540Z,88.4
2023-01-23T11:23:17.281Z,88.5
2023-01-23T11:24:24.725Z,88.6
2023-01-23T11:25:17.124Z,88.7
2023-01-23T11:26:16.615Z,88.7
2023-01-23T11:27:17.094Z,88.4
2023-01-23T11:28:16.630Z,88.8
2023-01-23T11:29:17.126Z,88.5
2023-01-23T11:30:16.730Z,88.5
2023-01-23T11:31:17.455Z,88.5
2023-01-23T11:32:17.140Z,88.6
2023-01-23T11:33:16.798Z,88.7
2023-01-23T11:34:17.316Z,88.6
2023-01-23T11:35:16.829Z,88.5
2023-01-23T11:36:17.355Z,88.2
2023-01-23T11:37:16.848Z,87.9
2023-01-23T11:38:30.175Z,87.7
2023-01-23T11:39:17.201Z,88.0
2023-01-23T11:40:16.703Z,87.9
2023-01-23T11:41:17.210Z,87.8
2023-01-23T11:42:16.690Z,88.0
2023-01-23T11:43:17.182Z,88.0
2023-01-23T11:44:19.166Z,88.2
2023-01-23T11:45:16.867Z,87.8
2023-01-23T11:46:17.570Z,87.6
2023-01-23T11:47:17.095Z,87.7
2023-01-23T11:48:16.639Z,87.3
2023-01-23T11:49:17.119Z,87.0
2023-01-23T11:50:16.616Z,87.1
2023-01-23T11:51:17.203Z,87.9
2023-01-23T11:52:16.723Z,88.0
2023-01-23T11:53:17.213Z,87.9
2023-01-23T11:54:16.812Z,87.0
2023-01-23T11:55:17.378Z,87.6
2023-01-23T11:56:16.897Z,87.6
2023-01-23T11:57:17.591Z,87.9
2023-01-23T11:58:17.094Z,88.1
2023-01-23T11:59:16.635Z,88.1
2023-01-23T12:00:17.140Z,88.0
2023-01-23T12:01:16.655Z,87.9
2023-01-23T12:02:17.384Z,87.8
2023-01-23T12:03:16.902Z,86.9
2023-01-23T12:04:17.506Z,87.4
2023-01-23T12:05:17.045Z,87.2
2023-01-23T12:06:28.541Z,87.2
2023-01-23T12:07:17.056Z,87.2
2023-01-23T12:08:16.650Z,87.3
2023-01-23T12:09:17.227Z,87.3
2023-01-23T12:10:16.799Z,87.0
2023-01-23T12:11:17.290Z,86.4
2023-01-23T12:12:16.885Z,86.6
2023-01-23T12:13:17.394Z,86.8
2023-01-23T12:14:16.918Z,86.5
2023-01-23T12:15:17.442Z,87.0
2023-01-23T12:16:17.062Z,87.2
2023-01-23T12:17:16.633Z,87.1
2023-01-23T12:18:17.176Z,87.0
2023-01-23T12:19:16.711Z,87.1
2023-01-23T12:20:17.218Z,87.1
2023-01-23T12:21:16.708Z,87.1
2023-01-23T12:22:17.357Z,87.0
2023-01-23T12:23:16.859Z,87.2
2023-01-23T12:24:17.339Z,87.3
2023-01-23T12:25:16.868Z,86.9
2023-01-23T12:26:17.362Z,87.1
2023-01-23T12:27:16.880Z,87.0
2023-01-23T12:28:18.348Z,87.2
2023-01-23T12:29:16.850Z,87.5
2023-01-23T12:30:17.400Z,87.4
2023-01-23T12:31:17.195Z,87.1
2023-01-23T12:32:17.406Z,87.4
2023-01-23T12:33:17.134Z,87.2
2023-01-23T12:34:16.713Z,87.3
2023-01-23T12:35:17.225Z,87.3
2023-01-23T12:36:16.746Z,87.4
2023-01-23T12:37:30.643Z,86.8
2023-01-23T12:38:17.377Z,87.0
2023-01-23T12:39:17.161Z,86.9
2023-01-23T12:40:16.841Z,87.1
2023-01-23T12:41:17.328Z,87.1
2023-01-23T12:42:17.020Z,87.2
2023-01-23T12:43:16.509Z,86.6
2023-01-23T12:44:17.030Z,86.2
2023-01-23T12:45:16.540Z,86.6
2023-01-23T12:46:17.091Z,86.8
2023-01-23T12:47:16.655Z,86.7
2023-01-23T12:48:17.185Z,86.8
2023-01-23T12:49:16.676Z,87.0
2023-01-23T12:50:17.318Z,86.9
2023-01-23T12:51:16.923Z,86.8
2023-01-23T12:52:17.049Z,86.9
2023-01-23T12:53:16.616Z,87.0
2023-01-23T12:54:17.430Z,86.9
2023-01-23T12:55:17.045Z,87.0
2023-01-23T12:56:16.594Z,86.9
2023-01-23T12:57:17.205Z,86.8
2023-01-23T12:58:17.001Z,86.8
2023-01-23T12:59:16.542Z,86.9
2023-01-23T13:00:17.126Z,86.9
2023-01-23T13:01:16.916Z,86.9
2023-01-23T13:02:17.335Z,86.6
2023-01-23T13:03:21.969Z,86.9
2023-01-23T13:04:17.252Z,86.5
2023-01-23T13:05:16.754Z,86.5
2023-01-23T13:06:17.283Z,86.3
2023-01-23T13:07:16.785Z,86.4
2023-01-23T13:08:20.101Z,86.6
2023-01-23T13:09:19.064Z,86.4
2023-01-23T13:10:16.797Z,86.8
2023-01-23T13:11:19.785Z,87.0
2023-01-23T13:12:17.008Z,86.9
2023-01-23T13:13:16.537Z,86.9
2023-01-23T13:14:17.056Z,86.6
2023-01-23T13:15:39.426Z,86.2
2023-01-23T13:16:17.427Z,86.8
2023-01-23T13:17:16.979Z,86.7
2023-01-23T13:18:16.602Z,86.7